sensor_id;sensor_type;location;lat;lon;timestamp;P1;durP1;ratioP1;P2;durP2;ratioP2
69596;SDS011;56802;51.184;-115.558;2022-09-16T00:02:14;13.60;;;7.40;;
69596;SDS011;56802;51.184;-115.558;2022-09-16T00:04:43;13.10;;;6.70;;
69596;SDS011;56802;51.184;-115.558;2022-09-16T00:07:13;14.30;;;8.10;;
69596;SDS011;56802;51.184;-115.558;2022-09-16T00:09:42;14.30;;;7.20;;
69596;SDS011;56802;51.184;-115.558;2022-09-16T00:12:11;14.50;;;7.50;;
69596;SDS011;56802;51.184;-115.558;2022-09-16T00:14:40;13.90;;;7.70;;
69596;SDS011;56802;51.184;-115.558;2022-09-16T00:17:09;19.30;;;8.70;;
69596;SDS011;56802;51.184;-115.558;2022-09-16T00:19:39;32.50;;;14.30;;
69596;SDS011;56802;51.184;-115.558;2022-09-16T00:22:08;16.00;;;8.10;;
69596;SDS011;56802;51.184;-115.558;2022-09-16T00:24:37;15.50;;;8.10;;
69596;SDS011;56802;51.184;-115.558;2022-09-16T00:27:09;15.20;;;8.10;;
69596;SDS011;56802;51.184;-115.558;2022-09-16T00:29:39;14.60;;;7.80;;
69596;SDS011;56802;51.184;-115.558;2022-09-16T00:32:08;15.50;;;7.70;;
69596;SDS011;56802;51.184;-115.558;2022-09-16T00:34:37;14.60;;;7.90;;
69596;SDS011;56802;51.184;-115.558;2022-09-16T00:37:07;14.40;;;8.30;;
69596;SDS011;56802;51.184;-115.558;2022-09-16T00:39:37;15.20;;;7.40;;
69596;SDS011;56802;51.184;-115.558;2022-09-16T00:42:09;12.20;;;7.00;;
69596;SDS011;56802;51.184;-115.558;2022-09-16T00:44:58;12.80;;;6.70;;
69596;SDS011;56802;51.184;-115.558;2022-09-16T00:47:55;13.60;;;6.70;;
69596;SDS011;56802;51.184;-115.558;2022-09-16T00:50:38;12.30;;;6.50;;
69596;SDS011;56802;51.184;-115.558;2022-09-16T00:53:21;12.40;;;6.30;;
69596;SDS011;56802;51.184;-115.558;2022-09-16T00:55:56;14.20;;;6.40;;
69596;SDS011;56802;51.184;-115.558;2022-09-16T00:58:43;11.60;;;5.90;;
69596;SDS011;56802;51.184;-115.558;2022-09-16T01:01:16;12.40;;;6.70;;
69596;SDS011;56802;51.184;-115.558;2022-09-16T01:03:54;13.10;;;6.80;;
69596;SDS011;56802;51.184;-115.558;2022-09-16T01:06:27;13.30;;;6.10;;
69596;SDS011;56802;51.184;-115.558;2022-09-16T01:08:57;12.00;;;6.40;;
69596;SDS011;56802;51.184;-115.558;2022-09-16T01:11:27;12.20;;;6.20;;
69596;SDS011;56802;51.184;-115.558;2022-09-16T01:13:57;12.70;;;6.30;;
69596;SDS011;56802;51.184;-115.558;2022-09-16T01:32:13;13.60;;;6.60;;
69596;SDS011;56802;51.184;-115.558;2022-09-16T01:37:39;12.00;;;5.90;;
69596;SDS011;56802;51.184;-115.558;2022-09-16T01:40:27;13.50;;;6.00;;
69596;SDS011;56802;51.184;-115.558;2022-09-16T01:46:33;13.70;;;6.20;;
69596;SDS011;56802;51.184;-115.558;2022-09-16T01:49:24;14.00;;;7.00;;
69596;SDS011;56802;51.184;-115.558;2022-09-16T01:55:25;12.70;;;6.60;;
69596;SDS011;56802;51.184;-115.558;2022-09-16T01:58:02;12.30;;;6.60;;
69596;SDS011;56802;51.184;-115.558;2022-09-16T02:01:08;13.00;;;6.20;;
69596;SDS011;56802;51.184;-115.558;2022-09-16T02:03:58;13.40;;;6.60;;
69596;SDS011;56802;51.184;-115.558;2022-09-16T02:06:33;14.60;;;6.90;;
69596;SDS011;56802;51.184;-115.558;2022-09-16T02:09:08;15.00;;;7.20;;
69596;SDS011;56802;51.184;-115.558;2022-09-16T02:11:46;13.50;;;6.80;;
69596;SDS011;56802;51.184;-115.558;2022-09-16T02:14:22;13.00;;;6.50;;
69596;SDS011;56802;51.184;-115.558;2022-09-16T02:16:55;12.70;;;6.30;;
69596;SDS011;56802;51.184;-115.558;2022-09-16T02:22:15;11.90;;;5.90;;
69596;SDS011;56802;51.184;-115.558;2022-09-16T02:24:47;12.40;;;6.30;;
69596;SDS011;56802;51.184;-115.558;2022-09-16T02:27:20;12.20;;;6.70;;
69596;SDS011;56802;51.184;-115.558;2022-09-16T02:30:05;12.30;;;6.40;;
69596;SDS011;56802;51.184;-115.558;2022-09-16T02:32:41;12.60;;;6.10;;
69596;SDS011;56802;51.184;-115.558;2022-09-16T02:35:19;15.00;;;6.20;;
69596;SDS011;56802;51.184;-115.558;2022-09-16T02:38:02;13.50;;;6.60;;
69596;SDS011;56802;51.184;-115.558;2022-09-16T02:40:57;13.00;;;6.40;;
69596;SDS011;56802;51.184;-115.558;2022-09-16T02:43:28;13.30;;;6.70;;
69596;SDS011;56802;51.184;-115.558;2022-09-16T02:46:24;12.80;;;6.10;;
69596;SDS011;56802;51.184;-115.558;2022-09-16T02:52:14;12.70;;;5.90;;
69596;SDS011;56802;51.184;-115.558;2022-09-16T02:57:24;11.20;;;5.60;;
69596;SDS011;56802;51.184;-115.558;2022-09-16T02:59:54;11.60;;;5.90;;
69596;SDS011;56802;51.184;-115.558;2022-09-16T03:02:25;12.80;;;6.40;;
69596;SDS011;56802;51.184;-115.558;2022-09-16T03:04:55;12.60;;;5.70;;
69596;SDS011;56802;51.184;-115.558;2022-09-16T03:07:24;11.90;;;6.10;;
69596;SDS011;56802;51.184;-115.558;2022-09-16T03:09:54;14.60;;;6.70;;
69596;SDS011;56802;51.184;-115.558;2022-09-16T03:19:19;12.50;;;5.80;;
69596;SDS011;56802;51.184;-115.558;2022-09-16T03:22:12;12.90;;;5.80;;
69596;SDS011;56802;51.184;-115.558;2022-09-16T03:25:25;12.20;;;5.90;;
69596;SDS011;56802;51.184;-115.558;2022-09-16T03:28:14;10.60;;;5.30;;
69596;SDS011;56802;51.184;-115.558;2022-09-16T03:33:38;12.30;;;6.00;;
69596;SDS011;56802;51.184;-115.558;2022-09-16T03:36:24;12.40;;;5.90;;
69596;SDS011;56802;51.184;-115.558;2022-09-16T03:38:59;11.40;;;5.30;;
69596;SDS011;56802;51.184;-115.558;2022-09-16T03:41:31;13.10;;;6.10;;
69596;SDS011;56802;51.184;-115.558;2022-09-16T03:44:02;12.60;;;5.70;;
69596;SDS011;56802;51.184;-115.558;2022-09-16T03:46:31;11.70;;;5.00;;
69596;SDS011;56802;51.184;-115.558;2022-09-16T03:49:01;12.00;;;6.00;;
69596;SDS011;56802;51.184;-115.558;2022-09-16T03:51:31;11.60;;;6.00;;
69596;SDS011;56802;51.184;-115.558;2022-09-16T03:54:00;12.10;;;5.60;;
69596;SDS011;56802;51.184;-115.558;2022-09-16T03:56:29;12.00;;;5.80;;
69596;SDS011;56802;51.184;-115.558;2022-09-16T03:58:59;12.50;;;5.90;;
69596;SDS011;56802;51.184;-115.558;2022-09-16T04:01:28;13.20;;;5.80;;
69596;SDS011;56802;51.184;-115.558;2022-09-16T04:03:57;12.20;;;6.10;;
69596;SDS011;56802;51.184;-115.558;2022-09-16T04:06:27;12.50;;;5.80;;
69596;SDS011;56802;51.184;-115.558;2022-09-16T04:08:56;12.90;;;6.60;;
69596;SDS011;56802;51.184;-115.558;2022-09-16T04:11:28;11.00;;;5.70;;
69596;SDS011;56802;51.184;-115.558;2022-09-16T04:13:59;14.30;;;6.40;;
69596;SDS011;56802;51.184;-115.558;2022-09-16T04:16:28;13.90;;;6.50;;
69596;SDS011;56802;51.184;-115.558;2022-09-16T04:18:58;12.30;;;6.00;;
69596;SDS011;56802;51.184;-115.558;2022-09-16T04:21:30;13.50;;;6.30;;
69596;SDS011;56802;51.184;-115.558;2022-09-16T04:24:03;12.90;;;6.10;;
69596;SDS011;56802;51.184;-115.558;2022-09-16T04:26:39;13.50;;;6.10;;
69596;SDS011;56802;51.184;-115.558;2022-09-16T04:29:09;12.30;;;6.10;;
69596;SDS011;56802;51.184;-115.558;2022-09-16T04:31:38;12.40;;;6.20;;
69596;SDS011;56802;51.184;-115.558;2022-09-16T04:34:09;11.50;;;6.00;;
69596;SDS011;56802;51.184;-115.558;2022-09-16T04:36:41;12.20;;;6.30;;
69596;SDS011;56802;51.184;-115.558;2022-09-16T04:39:10;14.30;;;6.20;;
69596;SDS011;56802;51.184;-115.558;2022-09-16T04:41:40;13.30;;;6.40;;
69596;SDS011;56802;51.184;-115.558;2022-09-16T04:44:10;12.90;;;5.70;;
69596;SDS011;56802;51.184;-115.558;2022-09-16T04:46:39;12.30;;;5.90;;
69596;SDS011;56802;51.184;-115.558;2022-09-16T04:49:09;12.30;;;5.90;;
69596;SDS011;56802;51.184;-115.558;2022-09-16T04:51:40;13.20;;;6.40;;
69596;SDS011;56802;51.184;-115.558;2022-09-16T04:54:09;13.80;;;6.30;;
69596;SDS011;56802;51.184;-115.558;2022-09-16T04:56:39;14.00;;;6.10;;
69596;SDS011;56802;51.184;-115.558;2022-09-16T04:59:09;12.20;;;6.20;;
69596;SDS011;56802;51.184;-115.558;2022-09-16T05:01:38;12.70;;;6.20;;
69596;SDS011;56802;51.184;-115.558;2022-09-16T05:04:09;12.60;;;6.40;;
69596;SDS011;56802;51.184;-115.558;2022-09-16T05:06:40;14.20;;;7.00;;
69596;SDS011;56802;51.184;-115.558;2022-09-16T05:09:10;12.60;;;6.10;;
69596;SDS011;56802;51.184;-115.558;2022-09-16T05:11:40;12.60;;;6.40;;
69596;SDS011;56802;51.184;-115.558;2022-09-16T05:14:13;13.70;;;6.40;;
69596;SDS011;56802;51.184;-115.558;2022-09-16T05:16:44;16.10;;;6.90;;
69596;SDS011;56802;51.184;-115.558;2022-09-16T05:19:14;14.00;;;7.00;;
69596;SDS011;56802;51.184;-115.558;2022-09-16T05:21:44;14.10;;;7.50;;
69596;SDS011;56802;51.184;-115.558;2022-09-16T05:24:13;12.50;;;6.80;;
69596;SDS011;56802;51.184;-115.558;2022-09-16T05:26:43;13.10;;;5.90;;
69596;SDS011;56802;51.184;-115.558;2022-09-16T05:29:15;11.70;;;6.20;;
69596;SDS011;56802;51.184;-115.558;2022-09-16T05:31:45;14.90;;;6.60;;
69596;SDS011;56802;51.184;-115.558;2022-09-16T05:34:17;13.20;;;6.30;;
69596;SDS011;56802;51.184;-115.558;2022-09-16T05:36:49;13.50;;;6.70;;
69596;SDS011;56802;51.184;-115.558;2022-09-16T05:39:21;11.40;;;6.10;;
69596;SDS011;56802;51.184;-115.558;2022-09-16T05:41:55;13.50;;;6.70;;
69596;SDS011;56802;51.184;-115.558;2022-09-16T05:44:27;14.20;;;6.50;;
69596;SDS011;56802;51.184;-115.558;2022-09-16T05:46:56;14.60;;;6.90;;
69596;SDS011;56802;51.184;-115.558;2022-09-16T05:49:26;14.00;;;7.10;;
69596;SDS011;56802;51.184;-115.558;2022-09-16T05:51:55;14.20;;;6.50;;
69596;SDS011;56802;51.184;-115.558;2022-09-16T05:54:24;13.90;;;6.80;;
69596;SDS011;56802;51.184;-115.558;2022-09-16T05:56:53;16.70;;;7.20;;
69596;SDS011;56802;51.184;-115.558;2022-09-16T05:59:23;13.90;;;6.60;;
69596;SDS011;56802;51.184;-115.558;2022-09-16T06:01:52;13.90;;;6.50;;
69596;SDS011;56802;51.184;-115.558;2022-09-16T06:04:22;14.40;;;6.90;;
69596;SDS011;56802;51.184;-115.558;2022-09-16T06:06:51;13.80;;;6.30;;
69596;SDS011;56802;51.184;-115.558;2022-09-16T06:09:23;12.90;;;6.30;;
69596;SDS011;56802;51.184;-115.558;2022-09-16T06:11:53;11.90;;;6.20;;
69596;SDS011;56802;51.184;-115.558;2022-09-16T06:14:28;13.50;;;6.80;;
69596;SDS011;56802;51.184;-115.558;2022-09-16T06:16:58;14.20;;;7.00;;
69596;SDS011;56802;51.184;-115.558;2022-09-16T06:19:27;13.90;;;6.50;;
69596;SDS011;56802;51.184;-115.558;2022-09-16T06:21:56;13.10;;;6.20;;
69596;SDS011;56802;51.184;-115.558;2022-09-16T06:24:26;13.00;;;6.10;;
69596;SDS011;56802;51.184;-115.558;2022-09-16T06:26:55;12.90;;;6.30;;
69596;SDS011;56802;51.184;-115.558;2022-09-16T06:29:24;15.80;;;7.70;;
69596;SDS011;56802;51.184;-115.558;2022-09-16T06:31:53;14.00;;;6.80;;
69596;SDS011;56802;51.184;-115.558;2022-09-16T06:34:23;14.30;;;7.60;;
69596;SDS011;56802;51.184;-115.558;2022-09-16T06:36:53;14.70;;;7.30;;
69596;SDS011;56802;51.184;-115.558;2022-09-16T06:39:22;13.30;;;6.90;;
69596;SDS011;56802;51.184;-115.558;2022-09-16T06:41:52;13.80;;;6.70;;
69596;SDS011;56802;51.184;-115.558;2022-09-16T06:44:21;14.90;;;7.30;;
69596;SDS011;56802;51.184;-115.558;2022-09-16T06:46:51;14.00;;;7.20;;
69596;SDS011;56802;51.184;-115.558;2022-09-16T06:49:20;14.10;;;6.70;;
69596;SDS011;56802;51.184;-115.558;2022-09-16T06:51:49;14.60;;;6.50;;
69596;SDS011;56802;51.184;-115.558;2022-09-16T06:54:19;13.90;;;6.40;;
69596;SDS011;56802;51.184;-115.558;2022-09-16T06:56:48;12.80;;;6.30;;
69596;SDS011;56802;51.184;-115.558;2022-09-16T06:59:18;14.10;;;6.60;;
69596;SDS011;56802;51.184;-115.558;2022-09-16T07:01:47;15.00;;;6.80;;
69596;SDS011;56802;51.184;-115.558;2022-09-16T07:04:16;15.40;;;6.20;;
69596;SDS011;56802;51.184;-115.558;2022-09-16T07:06:45;13.90;;;6.80;;
69596;SDS011;56802;51.184;-115.558;2022-09-16T07:09:36;13.40;;;6.30;;
69596;SDS011;56802;51.184;-115.558;2022-09-16T07:12:06;15.40;;;6.90;;
69596;SDS011;56802;51.184;-115.558;2022-09-16T07:14:35;14.20;;;6.40;;
69596;SDS011;56802;51.184;-115.558;2022-09-16T07:17:05;14.60;;;7.70;;
69596;SDS011;56802;51.184;-115.558;2022-09-16T07:19:36;13.90;;;6.60;;
69596;SDS011;56802;51.184;-115.558;2022-09-16T07:22:05;15.20;;;7.10;;
69596;SDS011;56802;51.184;-115.558;2022-09-16T07:24:34;14.20;;;6.60;;
69596;SDS011;56802;51.184;-115.558;2022-09-16T07:27:04;13.20;;;6.00;;
69596;SDS011;56802;51.184;-115.558;2022-09-16T07:29:33;13.50;;;6.40;;
69596;SDS011;56802;51.184;-115.558;2022-09-16T07:32:02;14.10;;;6.30;;
69596;SDS011;56802;51.184;-115.558;2022-09-16T07:34:31;13.90;;;5.90;;
69596;SDS011;56802;51.184;-115.558;2022-09-16T07:37:01;13.60;;;6.70;;
69596;SDS011;56802;51.184;-115.558;2022-09-16T07:39:30;13.30;;;6.60;;
69596;SDS011;56802;51.184;-115.558;2022-09-16T07:41:59;13.60;;;5.90;;
69596;SDS011;56802;51.184;-115.558;2022-09-16T07:44:32;13.70;;;5.80;;
69596;SDS011;56802;51.184;-115.558;2022-09-16T07:47:01;12.70;;;6.00;;
69596;SDS011;56802;51.184;-115.558;2022-09-16T07:49:31;13.40;;;6.40;;
69596;SDS011;56802;51.184;-115.558;2022-09-16T07:52:00;13.20;;;6.10;;
69596;SDS011;56802;51.184;-115.558;2022-09-16T07:54:29;13.60;;;6.40;;
69596;SDS011;56802;51.184;-115.558;2022-09-16T07:56:58;14.30;;;6.90;;
69596;SDS011;56802;51.184;-115.558;2022-09-16T07:59:28;13.40;;;6.30;;
69596;SDS011;56802;51.184;-115.558;2022-09-16T08:01:57;14.10;;;6.90;;
69596;SDS011;56802;51.184;-115.558;2022-09-16T08:04:26;13.00;;;6.40;;
69596;SDS011;56802;51.184;-115.558;2022-09-16T08:06:56;14.90;;;6.80;;
69596;SDS011;56802;51.184;-115.558;2022-09-16T08:09:25;15.80;;;6.70;;
69596;SDS011;56802;51.184;-115.558;2022-09-16T08:12:15;14.00;;;6.60;;
69596;SDS011;56802;51.184;-115.558;2022-09-16T08:14:44;14.10;;;7.20;;
69596;SDS011;56802;51.184;-115.558;2022-09-16T08:17:13;13.10;;;6.30;;
69596;SDS011;56802;51.184;-115.558;2022-09-16T08:19:43;15.60;;;6.80;;
69596;SDS011;56802;51.184;-115.558;2022-09-16T08:22:12;14.10;;;6.60;;
69596;SDS011;56802;51.184;-115.558;2022-09-16T08:24:41;15.10;;;6.90;;
69596;SDS011;56802;51.184;-115.558;2022-09-16T08:27:10;14.10;;;6.60;;
69596;SDS011;56802;51.184;-115.558;2022-09-16T08:29:40;13.90;;;6.70;;
69596;SDS011;56802;51.184;-115.558;2022-09-16T08:32:09;13.70;;;6.60;;
69596;SDS011;56802;51.184;-115.558;2022-09-16T08:34:38;16.20;;;6.80;;
69596;SDS011;56802;51.184;-115.558;2022-09-16T08:37:08;14.50;;;7.30;;
69596;SDS011;56802;51.184;-115.558;2022-09-16T08:39:37;14.50;;;6.90;;
69596;SDS011;56802;51.184;-115.558;2022-09-16T08:43:09;15.50;;;7.00;;
69596;SDS011;56802;51.184;-115.558;2022-09-16T08:45:32;14.60;;;6.60;;
69596;SDS011;56802;51.184;-115.558;2022-09-16T08:48:31;15.10;;;6.80;;
69596;SDS011;56802;51.184;-115.558;2022-09-16T08:51:14;14.20;;;6.60;;
69596;SDS011;56802;51.184;-115.558;2022-09-16T08:53:56;15.70;;;7.60;;
69596;SDS011;56802;51.184;-115.558;2022-09-16T08:56:30;14.80;;;7.00;;
69596;SDS011;56802;51.184;-115.558;2022-09-16T08:59:12;14.30;;;6.70;;
69596;SDS011;56802;51.184;-115.558;2022-09-16T09:01:53;14.30;;;6.40;;
69596;SDS011;56802;51.184;-115.558;2022-09-16T09:04:50;13.20;;;6.50;;
69596;SDS011;56802;51.184;-115.558;2022-09-16T09:13:28;14.00;;;6.70;;
69596;SDS011;56802;51.184;-115.558;2022-09-16T09:16:33;13.20;;;6.00;;
69596;SDS011;56802;51.184;-115.558;2022-09-16T09:28:32;11.40;;;5.50;;
69596;SDS011;56802;51.184;-115.558;2022-09-16T09:31:24;12.70;;;5.60;;
69596;SDS011;56802;51.184;-115.558;2022-09-16T09:40:38;13.70;;;6.10;;
69596;SDS011;56802;51.184;-115.558;2022-09-16T09:43:24;13.60;;;6.30;;
69596;SDS011;56802;51.184;-115.558;2022-09-16T09:48:56;13.90;;;6.60;;
69596;SDS011;56802;51.184;-115.558;2022-09-16T09:51:40;12.00;;;5.70;;
69596;SDS011;56802;51.184;-115.558;2022-09-16T09:54:28;12.70;;;5.80;;
69596;SDS011;56802;51.184;-115.558;2022-09-16T09:57:13;13.50;;;6.00;;
69596;SDS011;56802;51.184;-115.558;2022-09-16T10:00:17;13.40;;;5.80;;
69596;SDS011;56802;51.184;-115.558;2022-09-16T10:02:49;12.50;;;5.50;;
69596;SDS011;56802;51.184;-115.558;2022-09-16T10:05:26;15.30;;;6.40;;
69596;SDS011;56802;51.184;-115.558;2022-09-16T10:08:01;13.30;;;5.40;;
69596;SDS011;56802;51.184;-115.558;2022-09-16T10:10:54;13.30;;;6.00;;
69596;SDS011;56802;51.184;-115.558;2022-09-16T10:13:26;15.00;;;5.90;;
69596;SDS011;56802;51.184;-115.558;2022-09-16T10:16:16;13.10;;;5.60;;
69596;SDS011;56802;51.184;-115.558;2022-09-16T10:19:01;16.30;;;6.90;;
69596;SDS011;56802;51.184;-115.558;2022-09-16T10:22:28;13.30;;;5.70;;
69596;SDS011;56802;51.184;-115.558;2022-09-16T10:24:39;14.40;;;6.60;;
69596;SDS011;56802;51.184;-115.558;2022-09-16T10:27:22;14.20;;;5.60;;
69596;SDS011;56802;51.184;-115.558;2022-09-16T10:35:34;13.10;;;5.40;;
69596;SDS011;56802;51.184;-115.558;2022-09-16T10:38:16;15.10;;;6.60;;
69596;SDS011;56802;51.184;-115.558;2022-09-16T10:40:55;13.40;;;6.20;;
69596;SDS011;56802;51.184;-115.558;2022-09-16T10:43:29;14.70;;;6.80;;
69596;SDS011;56802;51.184;-115.558;2022-09-16T10:45:59;13.60;;;6.40;;
69596;SDS011;56802;51.184;-115.558;2022-09-16T10:48:30;13.20;;;5.80;;
69596;SDS011;56802;51.184;-115.558;2022-09-16T10:51:05;15.40;;;6.80;;
69596;SDS011;56802;51.184;-115.558;2022-09-16T10:53:51;15.00;;;6.20;;
69596;SDS011;56802;51.184;-115.558;2022-09-16T10:56:32;14.10;;;6.80;;
69596;SDS011;56802;51.184;-115.558;2022-09-16T10:59:11;12.30;;;5.80;;
69596;SDS011;56802;51.184;-115.558;2022-09-16T11:10:49;14.60;;;6.60;;
69596;SDS011;56802;51.184;-115.558;2022-09-16T11:13:28;14.50;;;6.80;;
69596;SDS011;56802;51.184;-115.558;2022-09-16T11:16:30;13.90;;;6.40;;
69596;SDS011;56802;51.184;-115.558;2022-09-16T11:30:55;13.40;;;5.90;;
69596;SDS011;56802;51.184;-115.558;2022-09-16T11:34:03;13.00;;;6.00;;
69596;SDS011;56802;51.184;-115.558;2022-09-16T11:39:58;13.30;;;6.10;;
69596;SDS011;56802;51.184;-115.558;2022-09-16T11:42:40;12.80;;;5.70;;
69596;SDS011;56802;51.184;-115.558;2022-09-16T11:48:47;13.90;;;6.40;;
69596;SDS011;56802;51.184;-115.558;2022-09-16T11:57:28;13.60;;;5.90;;
69596;SDS011;56802;51.184;-115.558;2022-09-16T12:00:10;13.80;;;6.10;;
69596;SDS011;56802;51.184;-115.558;2022-09-16T12:06:02;12.60;;;5.50;;
69596;SDS011;56802;51.184;-115.558;2022-09-16T12:09:01;13.80;;;5.80;;
69596;SDS011;56802;51.184;-115.558;2022-09-16T12:11:41;13.80;;;6.10;;
69596;SDS011;56802;51.184;-115.558;2022-09-16T12:14:27;13.10;;;5.60;;
69596;SDS011;56802;51.184;-115.558;2022-09-16T12:17:10;14.10;;;6.50;;
69596;SDS011;56802;51.184;-115.558;2022-09-16T12:31:37;14.40;;;6.50;;
69596;SDS011;56802;51.184;-115.558;2022-09-16T12:34:37;13.40;;;5.90;;
69596;SDS011;56802;51.184;-115.558;2022-09-16T12:37:50;12.80;;;6.10;;
69596;SDS011;56802;51.184;-115.558;2022-09-16T12:45:57;16.40;;;7.00;;
69596;SDS011;56802;51.184;-115.558;2022-09-16T12:49:28;15.00;;;6.70;;
69596;SDS011;56802;51.184;-115.558;2022-09-16T12:52:31;17.90;;;6.90;;
69596;SDS011;56802;51.184;-115.558;2022-09-16T13:01:57;15.40;;;7.00;;
69596;SDS011;56802;51.184;-115.558;2022-09-16T13:04:44;15.70;;;7.00;;
69596;SDS011;56802;51.184;-115.558;2022-09-16T13:07:30;16.00;;;6.60;;
69596;SDS011;56802;51.184;-115.558;2022-09-16T13:10:23;13.20;;;6.20;;
69596;SDS011;56802;51.184;-115.558;2022-09-16T13:13:35;14.40;;;6.60;;
69596;SDS011;56802;51.184;-115.558;2022-09-16T13:16:10;15.60;;;6.80;;
69596;SDS011;56802;51.184;-115.558;2022-09-16T13:18:41;14.50;;;6.50;;
69596;SDS011;56802;51.184;-115.558;2022-09-16T13:21:27;14.70;;;7.00;;
69596;SDS011;56802;51.184;-115.558;2022-09-16T13:26:56;14.10;;;5.80;;
69596;SDS011;56802;51.184;-115.558;2022-09-16T13:32:28;14.70;;;6.30;;
69596;SDS011;56802;51.184;-115.558;2022-09-16T13:37:52;14.10;;;6.10;;
69596;SDS011;56802;51.184;-115.558;2022-09-16T13:40:28;14.80;;;5.90;;
69596;SDS011;56802;51.184;-115.558;2022-09-16T13:45:40;13.90;;;6.40;;
69596;SDS011;56802;51.184;-115.558;2022-09-16T13:48:15;14.20;;;6.50;;
69596;SDS011;56802;51.184;-115.558;2022-09-16T13:50:56;16.10;;;7.20;;
69596;SDS011;56802;51.184;-115.558;2022-09-16T13:53:31;15.50;;;7.10;;
69596;SDS011;56802;51.184;-115.558;2022-09-16T14:02:26;14.90;;;6.40;;
69596;SDS011;56802;51.184;-115.558;2022-09-16T14:14:12;14.40;;;6.30;;
69596;SDS011;56802;51.184;-115.558;2022-09-16T14:17:14;13.80;;;5.80;;
69596;SDS011;56802;51.184;-115.558;2022-09-16T14:19:57;15.80;;;6.60;;
69596;SDS011;56802;51.184;-115.558;2022-09-16T14:22:27;14.90;;;5.90;;
69596;SDS011;56802;51.184;-115.558;2022-09-16T14:24:58;14.20;;;6.10;;
69596;SDS011;56802;51.184;-115.558;2022-09-16T14:27:45;16.00;;;6.50;;
69596;SDS011;56802;51.184;-115.558;2022-09-16T14:30:18;14.70;;;7.20;;
69596;SDS011;56802;51.184;-115.558;2022-09-16T14:32:48;14.70;;;6.60;;
69596;SDS011;56802;51.184;-115.558;2022-09-16T14:35:22;13.80;;;6.40;;
69596;SDS011;56802;51.184;-115.558;2022-09-16T14:37:59;14.50;;;6.40;;
69596;SDS011;56802;51.184;-115.558;2022-09-16T14:40:49;14.40;;;5.80;;
69596;SDS011;56802;51.184;-115.558;2022-09-16T14:43:19;14.70;;;6.40;;
69596;SDS011;56802;51.184;-115.558;2022-09-16T14:45:53;15.20;;;6.80;;
69596;SDS011;56802;51.184;-115.558;2022-09-16T14:48:33;16.60;;;6.80;;
69596;SDS011;56802;51.184;-115.558;2022-09-16T14:51:32;16.30;;;7.20;;
69596;SDS011;56802;51.184;-115.558;2022-09-16T14:54:02;16.60;;;8.00;;
69596;SDS011;56802;51.184;-115.558;2022-09-16T14:56:39;15.60;;;6.80;;
69596;SDS011;56802;51.184;-115.558;2022-09-16T14:59:10;14.90;;;6.70;;
69596;SDS011;56802;51.184;-115.558;2022-09-16T15:01:41;14.20;;;6.40;;
69596;SDS011;56802;51.184;-115.558;2022-09-16T15:04:18;12.80;;;6.00;;
69596;SDS011;56802;51.184;-115.558;2022-09-16T15:06:58;14.30;;;6.40;;
69596;SDS011;56802;51.184;-115.558;2022-09-16T15:09:45;14.50;;;5.80;;
69596;SDS011;56802;51.184;-115.558;2022-09-16T15:12:43;14.50;;;6.30;;
69596;SDS011;56802;51.184;-115.558;2022-09-16T15:15:26;12.90;;;6.10;;
69596;SDS011;56802;51.184;-115.558;2022-09-16T15:18:01;13.60;;;6.20;;
69596;SDS011;56802;51.184;-115.558;2022-09-16T15:20:36;15.90;;;6.50;;
69596;SDS011;56802;51.184;-115.558;2022-09-16T15:23:23;13.30;;;6.20;;
69596;SDS011;56802;51.184;-115.558;2022-09-16T15:25:58;16.10;;;6.90;;
69596;SDS011;56802;51.184;-115.558;2022-09-16T15:28:49;15.00;;;6.50;;
69596;SDS011;56802;51.184;-115.558;2022-09-16T15:31:44;13.80;;;6.40;;
69596;SDS011;56802;51.184;-115.558;2022-09-16T15:36:58;15.10;;;6.70;;
69596;SDS011;56802;51.184;-115.558;2022-09-16T15:39:30;14.10;;;6.60;;
69596;SDS011;56802;51.184;-115.558;2022-09-16T15:42:11;14.30;;;6.40;;
69596;SDS011;56802;51.184;-115.558;2022-09-16T15:44:53;13.00;;;6.50;;
69596;SDS011;56802;51.184;-115.558;2022-09-16T15:47:32;12.70;;;5.80;;
69596;SDS011;56802;51.184;-115.558;2022-09-16T15:50:14;15.00;;;6.70;;
69596;SDS011;56802;51.184;-115.558;2022-09-16T15:52:59;16.30;;;6.90;;
69596;SDS011;56802;51.184;-115.558;2022-09-16T15:58:46;15.50;;;7.50;;
69596;SDS011;56802;51.184;-115.558;2022-09-16T16:01:34;13.90;;;6.80;;
69596;SDS011;56802;51.184;-115.558;2022-09-16T16:04:37;16.30;;;7.70;;
69596;SDS011;56802;51.184;-115.558;2022-09-16T16:07:07;14.20;;;6.90;;
69596;SDS011;56802;51.184;-115.558;2022-09-16T16:09:41;13.60;;;6.60;;
69596;SDS011;56802;51.184;-115.558;2022-09-16T16:12:15;15.30;;;7.50;;
69596;SDS011;56802;51.184;-115.558;2022-09-16T16:14:46;13.20;;;6.50;;
69596;SDS011;56802;51.184;-115.558;2022-09-16T16:17:19;14.90;;;7.30;;
69596;SDS011;56802;51.184;-115.558;2022-09-16T16:19:50;15.40;;;7.70;;
69596;SDS011;56802;51.184;-115.558;2022-09-16T16:22:21;13.50;;;7.40;;
69596;SDS011;56802;51.184;-115.558;2022-09-16T16:24:51;15.20;;;7.50;;
69596;SDS011;56802;51.184;-115.558;2022-09-16T16:27:20;15.20;;;7.70;;
69596;SDS011;56802;51.184;-115.558;2022-09-16T16:29:49;15.70;;;8.00;;
69596;SDS011;56802;51.184;-115.558;2022-09-16T16:32:19;15.20;;;7.70;;
69596;SDS011;56802;51.184;-115.558;2022-09-16T16:34:48;14.90;;;7.40;;
69596;SDS011;56802;51.184;-115.558;2022-09-16T16:37:18;15.00;;;7.20;;
69596;SDS011;56802;51.184;-115.558;2022-09-16T16:40:09;13.60;;;7.20;;
69596;SDS011;56802;51.184;-115.558;2022-09-16T16:42:39;17.50;;;7.30;;
69596;SDS011;56802;51.184;-115.558;2022-09-16T16:45:11;15.40;;;6.90;;
69596;SDS011;56802;51.184;-115.558;2022-09-16T16:47:42;17.80;;;7.90;;
69596;SDS011;56802;51.184;-115.558;2022-09-16T16:50:11;18.50;;;7.40;;
69596;SDS011;56802;51.184;-115.558;2022-09-16T16:52:41;15.30;;;7.60;;
69596;SDS011;56802;51.184;-115.558;2022-09-16T16:55:11;15.20;;;7.70;;
69596;SDS011;56802;51.184;-115.558;2022-09-16T16:57:40;16.70;;;8.10;;
69596;SDS011;56802;51.184;-115.558;2022-09-16T17:00:10;14.50;;;7.30;;
69596;SDS011;56802;51.184;-115.558;2022-09-16T17:02:42;18.10;;;8.30;;
69596;SDS011;56802;51.184;-115.558;2022-09-16T17:05:11;15.00;;;7.50;;
69596;SDS011;56802;51.184;-115.558;2022-09-16T17:07:41;16.30;;;8.00;;
69596;SDS011;56802;51.184;-115.558;2022-09-16T17:10:11;16.90;;;8.50;;
69596;SDS011;56802;51.184;-115.558;2022-09-16T17:12:40;15.10;;;8.00;;
69596;SDS011;56802;51.184;-115.558;2022-09-16T17:15:09;15.80;;;7.50;;
69596;SDS011;56802;51.184;-115.558;2022-09-16T17:17:39;14.70;;;7.50;;
69596;SDS011;56802;51.184;-115.558;2022-09-16T17:20:08;16.00;;;8.20;;
69596;SDS011;56802;51.184;-115.558;2022-09-16T17:22:38;16.60;;;8.40;;
69596;SDS011;56802;51.184;-115.558;2022-09-16T17:25:08;15.00;;;7.40;;
69596;SDS011;56802;51.184;-115.558;2022-09-16T17:27:37;13.90;;;7.70;;
69596;SDS011;56802;51.184;-115.558;2022-09-16T17:30:07;13.80;;;7.20;;
69596;SDS011;56802;51.184;-115.558;2022-09-16T17:32:37;15.30;;;8.20;;
69596;SDS011;56802;51.184;-115.558;2022-09-16T17:35:06;14.60;;;8.00;;